Time;durP1;ratioP1;P1;durP2;ratioP2;P2;SDS_P1;SDS_P2;PMS_P1;PMS_P2;Temp;Humidity;BMP_temperature;BMP_pressure;BME280_temperature;BME280_humidity;BME280_pressure;Samples;Min_cycle;Max_cycle;Signal;HPM_P1;HPM_P2
2022/07/21 00:00:57;;;;;;;4.90;4.60;;;24.00;76.20;;;;;;4997420;28;20455;-71
2022/07/21 00:03:24;;;;;;;5.63;5.13;;;24.00;77.50;;;;;;4997303;28;20451;-71
2022/07/21 00:05:50;;;;;;;5.77;5.27;;;24.10;78.00;;;;;;4996998;28;20448;-71
2022/07/21 00:08:17;;;;;;;7.00;4.90;;;24.10;77.90;;;;;;4997153;28;20523;-71
2022/07/21 00:10:44;;;;;;;5.70;5.13;;;24.20;77.90;;;;;;4997113;28;20463;-71
2022/07/21 00:13:12;;;;;;;6.83;5.27;;;24.20;77.50;;;;;;4996798;28;20479;-71
2022/07/21 00:15:39;;;;;;;5.00;4.60;;;24.30;76.80;;;;;;4996721;28;20491;-71
2022/07/21 00:18:06;;;;;;;5.10;4.60;;;24.20;76.30;;;;;;4997032;28;20472;-71
2022/07/21 00:20:34;;;;;;;5.43;4.90;;;24.20;76.50;;;;;;4996868;28;20468;-70
2022/07/21 00:23:01;;;;;;;5.03;4.63;;;24.10;77.20;;;;;;4996935;28;20444;-71
2022/07/21 00:25:28;;;;;;;5.40;4.90;;;23.90;76.80;;;;;;4996691;28;20829;-71
2022/07/21 00:27:55;;;;;;;5.17;4.70;;;23.80;77.10;;;;;;4996521;28;20476;-71
2022/07/21 00:30:23;;;;;;;5.77;5.07;;;23.70;78.10;;;;;;4996849;28;20424;-71
2022/07/21 00:32:50;;;;;;;5.33;4.87;;;23.70;79.00;;;;;;4996800;28;20452;-71
2022/07/21 00:35:17;;;;;;;5.90;5.23;;;23.70;79.00;;;;;;4996697;28;20484;-71
2022/07/21 00:37:44;;;;;;;5.17;4.73;;;23.70;79.20;;;;;;4996421;28;20834;-70
2022/07/21 00:40:15;;;;;;;7.40;4.80;;;23.70;79.80;;;;;;4996464;28;20793;-70
2022/07/21 00:42:42;;;;;;;5.43;4.90;;;23.70;80.30;;;;;;4996678;28;20468;-71
2022/07/21 00:45:10;;;;;;;6.10;4.60;;;23.70;80.90;;;;;;4996308;28;20817;-71
2022/07/21 00:47:39;;;;;;;5.60;5.20;;;23.70;80.70;;;;;;4996416;28;20468;-71
2022/07/21 00:50:09;;;;;;;5.30;4.80;;;23.70;79.50;;;;;;4995747;28;20813;-71
2022/07/21 00:52:35;;;;;;;5.43;4.93;;;23.70;79.20;;;;;;4996138;28;20823;-71
2022/07/21 00:55:02;;;;;;;5.60;5.13;;;23.80;79.70;;;;;;4996259;28;20488;-70
2022/07/21 00:57:30;;;;;;;6.40;4.97;;;23.90;79.50;;;;;;4996314;28;20484;-71
2022/07/21 00:59:56;;;;;;;5.43;4.70;;;23.90;78.70;;;;;;4996315;28;20457;-71
2022/07/21 01:02:26;;;;;;;5.57;4.87;;;23.90;79.00;;;;;;4996362;28;20452;-72
2022/07/21 01:04:54;;;;;;;5.40;5.00;;;24.00;79.10;;;;;;4996295;28;20479;-72
2022/07/21 01:07:21;;;;;;;6.20;5.60;;;23.90;79.60;;;;;;4996107;28;20452;-70
2022/07/21 01:09:48;;;;;;;5.27;4.80;;;24.00;80.30;;;;;;4996114;28;20456;-71
2022/07/21 01:12:15;;;;;;;5.80;5.30;;;24.00;79.80;;;;;;4995682;28;20839;-71
2022/07/21 01:14:42;;;;;;;6.10;5.17;;;24.00;79.60;;;;;;4995751;28;20950;-71
2022/07/21 01:17:09;;;;;;;6.30;5.70;;;24.00;80.90;;;;;;4995507;28;20997;-70
2022/07/21 01:19:36;;;;;;;7.27;6.47;;;24.00;80.80;;;;;;4995995;28;20452;-71
2022/07/21 01:22:04;;;;;;;6.00;5.40;;;24.10;80.00;;;;;;4995848;28;20454;-71
2022/07/21 01:24:31;;;;;;;6.83;5.20;;;24.00;78.90;;;;;;4995875;28;20444;-71
2022/07/21 01:26:57;;;;;;;6.03;5.33;;;24.10;79.30;;;;;;4995674;28;20449;-71
2022/07/21 01:29:25;;;;;;;7.53;5.03;;;24.10;79.30;;;;;;4995681;28;20478;-72
2022/07/21 01:31:52;;;;;;;5.57;5.10;;;24.10;79.00;;;;;;4995644;28;20899;-71
2022/07/21 01:34:19;;;;;;;6.03;5.40;;;24.10;78.90;;;;;;4995709;28;20456;-71
2022/07/21 01:36:46;;;;;;;6.60;5.00;;;24.10;78.30;;;;;;4995502;28;20479;-71
2022/07/21 01:41:59;;;;;;;7.00;5.47;;;24.10;79.60;;;;;;4995708;28;20957;-71
2022/07/21 01:44:26;;;;;;;8.00;5.53;;;24.10;79.20;;;;;;4995957;28;20555;-71
2022/07/21 01:46:53;;;;;;;6.27;5.67;;;24.10;78.90;;;;;;4995365;28;20449;-72
2022/07/21 01:49:21;;;;;;;6.87;6.17;;;24.10;78.40;;;;;;4995212;28;20849;-71
2022/07/21 01:51:49;;;;;;;8.03;5.97;;;24.10;78.30;;;;;;4995444;28;20437;-72
2022/07/21 01:54:18;;;;;;;6.47;5.87;;;24.00;78.90;;;;;;4995019;28;20954;-72
2022/07/21 01:56:44;;;;;;;6.90;6.30;;;24.00;78.80;;;;;;4995300;28;20834;-70
2022/07/21 01:59:11;;;;;;;7.60;6.53;;;23.90;78.70;;;;;;4995120;28;21019;-71
2022/07/21 02:01:38;;;;;;;8.70;6.13;;;23.80;79.40;;;;;;4994297;28;20798;-71
2022/07/21 02:04:06;;;;;;;8.20;5.73;;;23.80;79.80;;;;;;4995197;28;20495;-71
2022/07/21 02:06:33;;;;;;;7.00;5.77;;;23.70;80.30;;;;;;4995157;28;20453;-72
2022/07/21 02:09:00;;;;;;;9.23;7.40;;;23.70;81.10;;;;;;4994591;28;21008;-71
2022/07/21 02:11:28;;;;;;;7.20;6.00;;;23.70;80.90;;;;;;4995125;28;20476;-71
2022/07/21 02:13:55;;;;;;;8.37;6.60;;;23.70;81.40;;;;;;4995090;28;20452;-71
2022/07/21 02:16:22;;;;;;;8.33;6.87;;;23.70;81.30;;;;;;4994959;28;20484;-71
2022/07/21 02:18:49;;;;;;;8.97;7.10;;;23.70;81.50;;;;;;4994417;28;20468;-71
2022/07/21 02:21:15;;;;;;;8.13;7.30;;;23.60;81.20;;;;;;4995588;28;20444;-71
2022/07/21 02:23:42;;;;;;;8.73;7.93;;;23.60;81.60;;;;;;4994756;28;20456;-71
2022/07/21 02:26:09;;;;;;;9.03;7.50;;;23.50;81.60;;;;;;4994817;28;20447;-72
2022/07/21 02:28:37;;;;;;;8.60;7.90;;;23.50;82.30;;;;;;4994715;28;20471;-71
2022/07/21 02:31:04;;;;;;;12.07;8.20;;;23.40;81.90;;;;;;4994657;28;20452;-71
2022/07/21 02:33:31;;;;;;;8.83;8.00;;;23.40;83.30;;;;;;4994646;28;20455;-71
2022/07/21 02:35:58;;;;;;;12.80;7.53;;;23.40;83.50;;;;;;4994593;28;20476;-72
2022/07/21 02:38:24;;;;;;;10.23;8.47;;;23.30;83.90;;;;;;4994417;28;20471;-71
2022/07/21 02:40:51;;;;;;;8.87;7.77;;;23.30;83.70;;;;;;4994455;28;20448;-71
2022/07/21 02:43:18;;;;;;;10.93;9.93;;;23.30;84.50;;;;;;4994401;28;20456;-71
2022/07/21 02:45:46;;;;;;;9.53;8.07;;;23.30;84.50;;;;;;4994111;28;20794;-72
2022/07/21 02:48:14;;;;;;;10.27;9.27;;;23.20;84.50;;;;;;4994205;28;20464;-71
2022/07/21 02:50:42;;;;;;;9.47;8.77;;;23.20;84.80;;;;;;4994129;28;21027;-72
2022/07/21 02:53:11;;;;;;;9.87;8.90;;;23.10;84.90;;;;;;4994402;28;20452;-71
2022/07/21 02:55:39;;;;;;;8.33;7.57;;;23.10;85.40;;;;;;4994256;28;20852;-71
2022/07/21 02:58:08;;;;;;;9.97;9.00;;;23.00;85.50;;;;;;4994226;28;20468;-71
2022/07/21 03:00:36;;;;;;;9.30;8.50;;;23.00;84.80;;;;;;4994466;28;20444;-72
2022/07/21 03:03:05;;;;;;;10.07;9.10;;;23.00;85.50;;;;;;4993919;28;20455;-72
2022/07/21 03:05:32;;;;;;;10.57;9.20;;;23.00;85.40;;;;;;4994363;28;20448;-72
2022/07/21 03:07:59;;;;;;;9.37;8.67;;;23.00;85.70;;;;;;4994207;28;20468;-71
2022/07/21 03:10:26;;;;;;;10.53;9.47;;;23.00;85.60;;;;;;4994532;28;20460;-71
2022/07/21 03:12:53;;;;;;;10.67;9.70;;;23.00;85.70;;;;;;4995499;28;20460;-71
2022/07/21 03:15:19;;;;;;;10.87;9.57;;;23.10;85.70;;;;;;4997983;28;20929;-71
2022/07/21 03:17:46;;;;;;;10.00;9.10;;;23.10;85.80;;;;;;4998100;28;20495;-71
2022/07/21 03:20:15;;;;;;;10.07;9.10;;;23.10;85.90;;;;;;4997975;28;20444;-71
2022/07/21 03:22:42;;;;;;;10.57;9.03;;;23.10;85.90;;;;;;4998048;28;20445;-71
2022/07/21 03:25:09;;;;;;;9.17;8.33;;;23.10;85.70;;;;;;4997721;28;20452;-71
2022/07/21 03:27:36;;;;;;;9.80;8.90;;;23.10;85.80;;;;;;4997949;28;20878;-71
2022/07/21 03:30:06;;;;;;;10.23;9.40;;;23.20;85.30;;;;;;4997970;28;20868;-71
2022/07/21 03:32:33;;;;;;;9.87;8.77;;;23.20;85.00;;;;;;4997916;28;20451;-71
2022/07/21 03:35:00;;;;;;;10.37;9.30;;;23.30;85.80;;;;;;4997718;28;20918;-71
2022/07/21 03:37:29;;;;;;;10.30;9.40;;;23.30;85.50;;;;;;4997688;28;20495;-71
2022/07/21 03:39:55;;;;;;;9.60;8.70;;;23.30;85.70;;;;;;4998213;28;20452;-71
2022/07/21 03:42:22;;;;;;;10.33;9.43;;;23.20;85.60;;;;;;4997761;28;20444;-71
2022/07/21 03:44:49;;;;;;;10.03;9.10;;;23.20;85.80;;;;;;4997402;28;20946;-71
2022/07/21 03:47:16;;;;;;;9.93;9.07;;;23.10;86.00;;;;;;4997563;28;20474;-71
2022/07/21 03:49:43;;;;;;;9.67;8.90;;;23.10;85.70;;;;;;4997705;28;20452;-71
2022/07/21 03:52:10;;;;;;;12.47;11.37;;;23.10;86.30;;;;;;4997758;28;20860;-72
2022/07/21 03:54:38;;;;;;;10.17;9.27;;;23.10;86.80;;;;;;4997567;28;20429;-71
2022/07/21 03:57:05;;;;;;;10.07;9.27;;;23.00;86.80;;;;;;4997348;28;20483;-71
2022/07/21 03:59:32;;;;;;;9.80;8.90;;;23.00;86.80;;;;;;4997406;28;20507;-72
2022/07/21 04:01:58;;;;;;;10.67;9.67;;;23.00;87.40;;;;;;4997372;28;20846;-71
2022/07/21 04:04:25;;;;;;;10.63;9.63;;;23.00;87.20;;;;;;4997115;28;20459;-71
2022/07/21 04:06:52;;;;;;;10.60;8.57;;;23.10;87.40;;;;;;4997282;28;20447;-71
2022/07/21 04:09:19;;;;;;;10.03;9.23;;;23.10;87.20;;;;;;4996934;28;20470;-71
2022/07/21 04:11:47;;;;;;;10.50;9.60;;;23.10;87.30;;;;;;4996804;28;20979;-71
2022/07/21 04:14:13;;;;;;;9.90;9.10;;;23.10;87.80;;;;;;4997142;28;20470;-71
2022/07/21 04:16:40;;;;;;;10.93;9.83;;;23.10;88.00;;;;;;4997126;28;20484;-71
2022/07/21 04:19:07;;;;;;;13.80;10.40;;;23.10;88.40;;;;;;4996719;28;21020;-71
2022/07/21 04:21:34;;;;;;;10.77;9.67;;;23.10;88.30;;;;;;4997103;28;20459;-72
2022/07/21 04:24:00;;;;;;;11.20;9.70;;;23.10;88.20;;;;;;4996175;28;20448;-72
2022/07/21 04:26:28;;;;;;;10.40;9.30;;;23.10;88.40;;;;;;4997028;28;20444;-72
2022/07/21 04:28:56;;;;;;;12.07;9.00;;;23.10;87.90;;;;;;4996739;28;20464;-71
2022/07/21 04:31:23;;;;;;;10.57;9.60;;;23.10;87.70;;;;;;4996961;28;20459;-72
2022/07/21 04:33:50;;;;;;;10.83;9.90;;;23.00;86.90;;;;;;4996983;28;20448;-72
2022/07/21 04:36:16;;;;;;;9.70;8.90;;;23.00;87.60;;;;;;4996812;28;20868;-71
2022/07/21 04:38:43;;;;;;;11.83;9.53;;;23.00;87.90;;;;;;4996634;28;20472;-71
2022/07/21 04:41:10;;;;;;;14.97;9.70;;;22.90;87.40;;;;;;4996662;28;20550;-71
2022/07/21 04:43:37;;;;;;;10.33;9.50;;;22.80;87.70;;;;;;4996660;28;20452;-71
2022/07/21 04:46:05;;;;;;;11.63;9.40;;;22.80;88.10;;;;;;4996558;28;20453;-71
2022/07/21 04:48:31;;;;;;;11.40;10.20;;;22.80;88.00;;;;;;4996419;28;20475;-72
2022/07/21 04:50:58;;;;;;;12.43;10.00;;;22.80;87.80;;;;;;4996642;28;20467;-72
2022/07/21 04:53:25;;;;;;;10.53;9.50;;;22.80;88.60;;;;;;4996214;28;20448;-72
2022/07/21 04:55:52;;;;;;;10.83;9.67;;;22.80;89.00;;;;;;4996515;28;20444;-72
2022/07/21 04:58:18;;;;;;;11.23;10.23;;;22.80;88.90;;;;;;4996286;28;20467;-71
2022/07/21 05:00:45;;;;;;;11.47;10.27;;;22.80;89.40;;;;;;4996486;28;20452;-71
2022/07/21 05:03:14;;;;;;;12.00;10.10;;;22.80;89.60;;;;;;4996381;28;20434;-72
2022/07/21 05:05:40;;;;;;;11.63;10.43;;;22.80;89.90;;;;;;4996328;28;20444;-72
2022/07/21 05:08:07;;;;;;;11.80;10.60;;;22.80;88.90;;;;;;4996173;28;20491;-71
2022/07/21 05:10:34;;;;;;;11.73;10.63;;;22.70;89.50;;;;;;4996119;28;20460;-71
2022/07/21 05:13:01;;;;;;;11.97;10.73;;;22.70;89.30;;;;;;4995778;28;20452;-71
2022/07/21 05:15:28;;;;;;;12.33;10.97;;;22.70;90.10;;;;;;4996048;28;20833;-71
2022/07/21 05:17:54;;;;;;;11.93;10.50;;;22.80;89.90;;;;;;4995756;28;20488;-71
2022/07/21 05:20:22;;;;;;;12.00;10.70;;;22.70;89.40;;;;;;4995725;28;20433;-71
2022/07/21 05:22:49;;;;;;;11.63;10.63;;;22.60;89.20;;;;;;4995600;28;20972;-71
2022/07/21 05:25:16;;;;;;;11.50;10.50;;;22.50;89.70;;;;;;4995543;28;20452;-71
2022/07/21 05:27:43;;;;;;;11.43;10.43;;;22.50;89.70;;;;;;4995527;28;20464;-71
2022/07/21 05:30:11;;;;;;;11.53;10.63;;;22.50;90.00;;;;;;4995499;28;20455;-72
2022/07/21 05:32:37;;;;;;;11.87;10.70;;;22.50;90.00;;;;;;4995677;28;20452;-72
2022/07/21 05:35:08;;;;;;;11.83;10.60;;;22.50;90.10;;;;;;4995668;28;20456;-72
2022/07/21 05:37:36;;;;;;;10.30;9.27;;;22.60;89.80;;;;;;4995490;28;20495;-72
2022/07/21 05:40:04;;;;;;;9.67;8.70;;;22.60;89.50;;;;;;4995553;28;20451;-71
2022/07/21 05:42:30;;;;;;;11.03;10.03;;;22.60;89.30;;;;;;4995591;28;20447;-72
2022/07/21 05:44:58;;;;;;;10.67;9.73;;;22.80;89.50;;;;;;4995546;28;20452;-72
2022/07/21 05:47:25;;;;;;;10.70;9.70;;;22.80;88.90;;;;;;4995274;28;20535;-71
2022/07/21 05:49:51;;;;;;;11.33;10.17;;;22.90;88.60;;;;;;4995380;28;20451;-72
2022/07/21 05:52:18;;;;;;;12.53;9.33;;;23.00;87.60;;;;;;4995567;28;20454;-72
2022/07/21 05:54:46;;;;;;;9.73;8.80;;;23.00;87.30;;;;;;4995226;28;20468;-72
2022/07/21 05:57:13;;;;;;;11.53;9.70;;;23.10;86.90;;;;;;4994769;28;20856;-71
2022/07/21 05:59:40;;;;;;;13.60;9.07;;;23.20;87.70;;;;;;4995185;28;20452;-72
2022/07/21 06:02:07;;;;;;;10.07;9.13;;;23.10;87.10;;;;;;4995126;28;20444;-72
2022/07/21 06:04:34;;;;;;;11.07;9.90;;;23.20;87.50;;;;;;4994811;28;20444;-72
2022/07/21 06:07:00;;;;;;;10.20;9.10;;;23.20;87.60;;;;;;4995158;28;20456;-72
2022/07/21 06:09:27;;;;;;;11.50;9.23;;;23.20;86.70;;;;;;4995009;28;20472;-72
2022/07/21 06:11:56;;;;;;;12.53;9.33;;;23.20;86.90;;;;;;4994844;28;20511;-72
2022/07/21 06:14:23;;;;;;;9.10;8.30;;;23.20;87.80;;;;;;4995100;28;20451;-72
2022/07/21 06:16:50;;;;;;;10.30;8.87;;;23.20;86.50;;;;;;4995185;28;20488;-72
2022/07/21 06:19:17;;;;;;;10.70;9.20;;;23.20;86.30;;;;;;4994921;28;20468;-71
2022/07/21 06:21:43;;;;;;;9.90;8.30;;;23.20;86.40;;;;;;4995408;28;20480;-71
2022/07/21 06:24:10;;;;;;;9.30;8.37;;;23.20;86.60;;;;;;4994615;28;20946;-72
2022/07/21 06:26:38;;;;;;;9.53;8.60;;;23.20;86.20;;;;;;4994660;28;20950;-72
2022/07/21 06:29:07;;;;;;;12.97;8.67;;;23.20;86.60;;;;;;4994729;28;20841;-71
2022/07/21 06:31:33;;;;;;;10.03;8.10;;;23.30;87.00;;;;;;4995025;28;20456;-72
2022/07/21 06:34:00;;;;;;;9.70;8.90;;;23.30;85.80;;;;;;4994667;28;20452;-72
2022/07/21 06:36:27;;;;;;;11.63;9.27;;;23.40;86.20;;;;;;4994230;28;20455;-72
2022/07/21 06:38:54;;;;;;;10.40;8.77;;;23.50;85.20;;;;;;4994424;28;20472;-72
2022/07/21 06:41:20;;;;;;;9.33;8.43;;;23.60;85.00;;;;;;4994535;28;20456;-72
2022/07/21 06:43:47;;;;;;;9.27;8.47;;;23.70;84.10;;;;;;4994531;28;20444;-72
2022/07/21 06:46:15;;;;;;;10.03;8.00;;;23.80;84.30;;;;;;4994462;28;20454;-72
2022/07/21 06:48:42;;;;;;;8.77;7.17;;;23.90;82.50;;;;;;4994047;28;20469;-71
2022/07/21 06:51:09;;;;;;;7.97;7.27;;;24.00;82.20;;;;;;4995045;28;20459;-72
2022/07/21 06:53:36;;;;;;;7.10;5.70;;;24.10;80.90;;;;;;4994351;28;20440;-68
2022/07/21 06:56:03;;;;;;;7.70;6.27;;;24.10;80.80;;;;;;4994286;28;20432;-68
2022/07/21 06:58:30;;;;;;;7.37;6.77;;;23.90;79.40;;;;;;4994852;28;20496;-71
2022/07/21 07:00:56;;;;;;;6.40;5.80;;;23.80;81.90;;;;;;4993852;28;20452;-70
2022/07/21 07:03:24;;;;;;;8.30;6.50;;;23.80;81.30;;;;;;4993893;28;20448;-69
2022/07/21 07:05:51;;;;;;;7.37;6.63;;;23.60;81.00;;;;;;4994191;28;20451;-69
2022/07/21 07:08:18;;;;;;;9.63;7.20;;;23.60;80.80;;;;;;4994175;28;20476;-69
2022/07/21 07:10:46;;;;;;;6.93;6.33;;;23.50;81.60;;;;;;4994187;28;20456;-69
2022/07/21 07:13:15;;;;;;;7.13;6.57;;;23.70;82.00;;;;;;4993759;28;20468;-69
2022/07/21 07:15:41;;;;;;;8.97;6.57;;;23.80;80.90;;;;;;4994087;28;20559;-69
2022/07/21 07:18:08;;;;;;;5.80;5.30;;;24.00;81.10;;;;;;4994092;28;20488;-69
2022/07/21 07:20:36;;;;;;;6.97;6.40;;;24.10;77.30;;;;;;4993837;28;20455;-68
2022/07/21 07:23:03;;;;;;;10.00;6.50;;;24.10;77.70;;;;;;4994070;28;20440;-68
2022/07/21 07:25:30;;;;;;;6.63;5.93;;;24.10;78.30;;;;;;4993980;28;20444;-68
2022/07/21 07:27:58;;;;;;;6.60;6.03;;;24.30;77.30;;;;;;4993960;28;20464;-68
2022/07/21 07:30:25;;;;;;;6.77;5.83;;;24.40;77.40;;;;;;4993930;28;20475;-68
2022/07/21 07:32:52;;;;;;;7.40;5.70;;;24.60;75.00;;;;;;4993691;28;20938;-68
2022/07/21 07:35:18;;;;;;;7.40;6.20;;;24.70;75.70;;;;;;4993893;28;20452;-68
2022/07/21 07:37:47;;;;;;;7.53;6.83;;;24.80;74.60;;;;;;4993792;28;20491;-68
2022/07/21 07:40:17;;;;;;;10.73;6.87;;;24.70;74.40;;;;;;4993652;28;20436;-68
2022/07/21 07:42:44;;;;;;;8.63;6.77;;;24.70;75.60;;;;;;4993950;28;20437;-68
2022/07/21 07:45:12;;;;;;;6.37;5.80;;;24.50;74.60;;;;;;4993567;28;20949;-68
2022/07/21 07:47:41;;;;;;;6.40;5.90;;;24.50;75.90;;;;;;4993706;28;20482;-68
2022/07/21 07:50:10;;;;;;;8.73;6.23;;;24.40;75.20;;;;;;4993824;28;20454;-68
2022/07/21 07:52:37;;;;;;;7.87;7.20;;;24.60;75.00;;;;;;4993538;28;20460;-68
2022/07/21 07:55:07;;;;;;;7.43;6.63;;;24.70;73.80;;;;;;4993717;28;20459;-68
2022/07/21 07:57:34;;;;;;;7.93;7.07;;;24.80;73.80;;;;;;4993331;28;20579;-68
2022/07/21 08:00:01;;;;;;;8.07;7.37;;;24.80;73.60;;;;;;4995207;28;20943;-68
2022/07/21 08:02:28;;;;;;;8.23;7.53;;;24.90;73.30;;;;;;4997407;28;20448;-68
2022/07/21 08:04:55;;;;;;;11.93;8.47;;;24.90;72.00;;;;;;4997409;28;20464;-68
2022/07/21 08:07:22;;;;;;;8.57;7.77;;;24.90;73.00;;;;;;4997331;28;20436;-68
2022/07/21 08:09:49;;;;;;;10.00;8.97;;;24.70;71.10;;;;;;4997263;28;20527;-68
2022/07/21 08:12:17;;;;;;;10.10;9.00;;;24.60;72.60;;;;;;4996985;28;20468;-68
2022/07/21 08:14:43;;;;;;;8.67;7.83;;;24.50;72.50;;;;;;4997184;28;20457;-68
2022/07/21 08:17:10;;;;;;;9.00;8.23;;;24.60;74.30;;;;;;4997069;28;20448;-68
2022/07/21 08:19:37;;;;;;;8.87;8.00;;;24.60;71.50;;;;;;4997066;28;20440;-68
2022/07/21 08:22:04;;;;;;;9.33;8.43;;;24.90;72.70;;;;;;4996779;28;20957;-68
2022/07/21 08:24:30;;;;;;;8.23;7.43;;;25.10;71.20;;;;;;4997156;28;20448;-68
2022/07/21 08:26:57;;;;;;;10.43;7.83;;;25.40;70.60;;;;;;4996993;28;20448;-68
2022/07/21 08:29:25;;;;;;;8.77;8.17;;;25.80;70.60;;;;;;4996816;28;20464;-68
2022/07/21 08:31:52;;;;;;;9.40;8.23;;;26.10;67.60;;;;;;4996927;28;20444;-68
2022/07/21 08:34:19;;;;;;;9.40;8.53;;;26.10;66.90;;;;;;4996920;28;20466;-68
2022/07/21 08:36:45;;;;;;;13.43;9.00;;;26.00;69.40;;;;;;4996504;28;20957;-68
2022/07/21 08:39:12;;;;;;;10.93;9.80;;;25.80;69.40;;;;;;4996739;28;20902;-68
2022/07/21 08:41:40;;;;;;;10.73;9.93;;;25.50;69.90;;;;;;4996726;28;20458;-68
2022/07/21 08:44:10;;;;;;;11.37;9.90;;;25.20;69.90;;;;;;4996698;28;20451;-68
2022/07/21 08:46:41;;;;;;;9.97;9.07;;;25.10;70.20;;;;;;4996677;28;20452;-68
2022/07/21 08:49:10;;;;;;;10.00;9.00;;;25.00;71.30;;;;;;4996759;28;20472;-68
2022/07/21 08:51:37;;;;;;;9.93;8.90;;;24.90;70.40;;;;;;4996534;28;20459;-68
2022/07/21 08:54:05;;;;;;;9.30;8.40;;;24.90;69.80;;;;;;4996428;28;20448;-68
2022/07/21 08:56:32;;;;;;;8.07;7.33;;;25.00;68.60;;;;;;4996342;28;20463;-68
2022/07/21 08:58:58;;;;;;;8.20;7.43;;;25.10;67.40;;;;;;4996142;28;20495;-68
2022/07/21 09:01:26;;;;;;;8.77;7.97;;;25.30;67.40;;;;;;4996380;28;20457;-68
2022/07/21 09:03:54;;;;;;;9.17;8.37;;;25.60;67.70;;;;;;4996004;28;20451;-68
2022/07/21 09:06:21;;;;;;;9.07;6.77;;;25.60;65.90;;;;;;4996241;28;20460;-68
2022/07/21 09:08:50;;;;;;;9.00;6.90;;;25.60;64.20;;;;;;4996105;28;20567;-69
2022/07/21 09:11:20;;;;;;;8.73;7.93;;;25.90;66.70;;;;;;4995619;28;20471;-69
2022/07/21 09:13:51;;;;;;;11.70;7.70;;;25.80;64.10;;;;;;4996102;28;20455;-69
2022/07/21 09:16:35;;;;;;;7.63;6.83;;;25.70;63.60;;;;;;4996150;28;20436;-68
2022/07/21 09:19:04;;;;;;;9.07;7.03;;;25.60;62.70;;;;;;4995867;28;20522;-68
2022/07/21 09:21:33;;;;;;;7.27;6.57;;;25.40;62.80;;;;;;4995745;28;20482;-69
2022/07/21 09:24:16;;;;;;;9.43;7.50;;;25.40;65.20;;;;;;4995921;28;20448;-69
2022/07/21 09:27:05;;;;;;;6.73;6.23;;;25.50;64.40;;;;;;4995894;28;20432;-68
2022/07/21 09:29:42;;;;;;;7.00;6.30;;;25.60;62.10;;;;;;4995478;28;20999;-69
2022/07/21 09:32:21;;;;;;;9.77;7.13;;;25.50;62.60;;;;;;4995848;28;20432;-69
2022/07/21 09:34:50;;;;;;;7.40;6.13;;;25.50;63.50;;;;;;4995478;28;20432;-68
2022/07/21 09:37:17;;;;;;;8.93;7.20;;;25.40;62.50;;;;;;4995494;28;20462;-69
2022/07/21 09:39:45;;;;;;;11.37;7.30;;;25.30;63.50;;;;;;4995639;28;20452;-68
2022/07/21 09:42:14;;;;;;;7.60;6.20;;;25.10;65.60;;;;;;4995530;28;20463;-69
2022/07/21 09:44:44;;;;;;;8.20;6.90;;;24.90;66.20;;;;;;4995620;28;20459;-69
2022/07/21 09:47:12;;;;;;;8.53;7.80;;;24.70;67.50;;;;;;4995651;28;20448;-68
2022/07/21 09:49:40;;;;;;;7.50;6.83;;;24.50;67.70;;;;;;4995346;28;20448;-69
2022/07/21 09:52:20;;;;;;;10.67;8.30;;;24.40;68.30;;;;;;4995399;28;20503;-68
2022/07/21 09:54:47;;;;;;;8.67;7.77;;;24.20;70.10;;;;;;4995446;28;20443;-68
2022/07/21 09:57:16;;;;;;;12.17;7.73;;;24.10;70.60;;;;;;4995211;28;20456;-69
2022/07/21 09:59:44;;;;;;;9.20;8.30;;;23.90;72.10;;;;;;4994877;28;20487;-68
2022/07/21 10:02:16;;;;;;;8.30;7.60;;;23.80;73.30;;;;;;4994859;28;21016;-68
2022/07/21 10:04:44;;;;;;;9.97;8.93;;;23.60;74.40;;;;;;4995172;28;20436;-68
2022/07/21 10:07:11;;;;;;;10.13;9.10;;;23.40;76.00;;;;;;4995104;28;20448;-68
2022/07/21 10:09:40;;;;;;;10.57;9.00;;;23.30;77.80;;;;;;4994868;28;20436;-68
2022/07/21 10:12:08;;;;;;;10.93;9.83;;;23.20;78.20;;;;;;4994715;28;20460;-68
2022/07/21 10:14:36;;;;;;;11.53;10.40;;;23.20;79.50;;;;;;4994934;28;20460;-68
2022/07/21 10:17:04;;;;;;;11.40;10.23;;;23.00;80.90;;;;;;4994867;28;20456;-68
2022/07/21 10:19:37;;;;;;;10.60;9.53;;;23.00;81.70;;;;;;4994757;28;20488;-68
2022/07/21 10:22:10;;;;;;;10.30;9.30;;;22.90;82.30;;;;;;4993842;28;20809;-68
2022/07/21 10:24:40;;;;;;;9.60;8.77;;;22.90;82.90;;;;;;4994778;28;20444;-68
2022/07/21 10:27:09;;;;;;;8.33;7.63;;;23.00;84.00;;;;;;4994761;28;20433;-68
2022/07/21 10:29:54;;;;;;;8.63;7.83;;;23.00;86.30;;;;;;4994289;28;20475;-68
2022/07/21 10:32:24;;;;;;;9.10;8.20;;;23.00;87.40;;;;;;4994359;28;20988;-68
2022/07/21 10:34:51;;;;;;;11.37;9.20;;;23.00;88.40;;;;;;4994757;28;20467;-68
2022/07/21 10:37:49;;;;;;;10.30;9.37;;;23.10;88.00;;;;;;4994511;28;20503;-69
2022/07/21 10:40:40;;;;;;;10.50;9.60;;;23.20;88.60;;;;;;4994284;28;20795;-68
2022/07/21 10:43:42;;;;;;;10.80;9.70;;;23.10;89.50;;;;;;4994520;28;20454;-68
2022/07/21 10:46:40;;;;;;;10.57;9.57;;;23.10;89.40;;;;;;4994448;28;20451;-68
2022/07/21 10:49:08;;;;;;;11.53;10.43;;;23.00;90.20;;;;;;4994498;28;20476;-68
2022/07/21 10:51:36;;;;;;;10.77;9.67;;;23.00;90.50;;;;;;4994537;28;20497;-68
2022/07/21 10:54:25;;;;;;;13.53;12.13;;;23.00;90.80;;;;;;4994418;28;20448;-68
2022/07/21 10:57:29;;;;;;;12.50;11.10;;;22.90;91.00;;;;;;4994280;28;20796;-68
2022/07/21 11:00:22;;;;;;;12.03;10.93;;;22.80;91.70;;;;;;4994246;28;20553;-68
2022/07/21 11:02:50;;;;;;;11.40;10.30;;;22.70;91.60;;;;;;4994210;28;20436;-68
2022/07/21 11:05:18;;;;;;;10.03;9.03;;;22.70;91.80;;;;;;4994302;28;20460;-68
2022/07/21 11:08:10;;;;;;;11.50;9.00;;;22.70;92.20;;;;;;4994108;28;20555;-68
2022/07/21 11:10:38;;;;;;;11.73;10.67;;;22.60;92.10;;;;;;4994207;28;20484;-68
2022/07/21 11:13:06;;;;;;;9.70;8.80;;;22.60;92.60;;;;;;4993741;28;20460;-68
2022/07/21 11:15:57;;;;;;;9.50;8.70;;;22.70;92.30;;;;;;4993786;28;20791;-68
2022/07/21 11:18:26;;;;;;;9.70;8.70;;;22.70;92.60;;;;;;4993525;28;20997;-69
2022/07/21 11:21:12;;;;;;;9.23;8.33;;;22.70;92.80;;;;;;4994059;28;20452;-68
2022/07/21 11:23:41;;;;;;;8.77;7.53;;;22.80;92.50;;;;;;4993763;28;20941;-68
2022/07/21 11:26:08;;;;;;;9.50;8.60;;;22.90;92.40;;;;;;4993709;28;20965;-68
2022/07/21 11:28:37;;;;;;;7.90;7.23;;;22.80;92.60;;;;;;4993846;28;20472;-68
2022/07/21 11:31:13;;;;;;;9.97;9.03;;;22.80;92.20;;;;;;4994016;28;20457;-69
2022/07/21 11:33:41;;;;;;;7.90;7.10;;;22.80;92.70;;;;;;4995326;28;20443;-68
2022/07/21 11:36:08;;;;;;;8.43;7.73;;;22.80;92.80;;;;;;4997949;28;20455;-68
2022/07/21 11:38:35;;;;;;;8.03;7.27;;;22.80;93.10;;;;;;4997779;28;20931;-68
2022/07/21 11:41:15;;;;;;;6.93;6.43;;;22.90;93.10;;;;;;4997580;28;20966;-68
2022/07/21 11:43:46;;;;;;;6.73;5.87;;;22.90;92.60;;;;;;4998137;28;20483;-68
2022/07/21 11:46:13;;;;;;;6.27;5.77;;;23.00;92.70;;;;;;4998173;28;20463;-68
2022/07/21 11:48:40;;;;;;;5.80;5.37;;;23.10;92.20;;;;;;4997550;28;20468;-68
2022/07/21 11:51:08;;;;;;;5.63;5.23;;;23.10;92.50;;;;;;4997719;28;20458;-68
2022/07/21 11:53:35;;;;;;;5.70;5.23;;;23.20;92.80;;;;;;4997619;28;20475;-68
2022/07/21 11:56:02;;;;;;;5.90;5.40;;;23.10;92.20;;;;;;4997536;28;20547;-68
2022/07/21 11:58:29;;;;;;;7.47;6.47;;;23.20;92.10;;;;;;4997332;28;20860;-69
2022/07/21 12:01:08;;;;;;;6.67;6.17;;;23.20;92.80;;;;;;4997495;28;20455;-69
2022/07/21 12:03:35;;;;;;;6.40;5.80;;;23.00;92.90;;;;;;4997494;28;20461;-69
2022/07/21 12:06:03;;;;;;;6.40;5.80;;;23.00;92.80;;;;;;4997367;28;20452;-68
2022/07/21 12:08:31;;;;;;;6.77;6.27;;;22.90;93.00;;;;;;4997329;28;20474;-68
2022/07/21 12:11:07;;;;;;;7.13;6.43;;;22.80;93.30;;;;;;4997232;28;20494;-69
2022/07/21 12:13:52;;;;;;;7.07;6.47;;;22.80;93.30;;;;;;4997329;28;20440;-69
2022/07/21 12:16:21;;;;;;;6.10;5.60;;;22.80;93.40;;;;;;4997139;28;20980;-69
2022/07/21 12:18:47;;;;;;;6.23;5.73;;;22.70;93.40;;;;;;4997108;28;20514;-69
2022/07/21 12:21:14;;;;;;;6.30;5.70;;;22.60;93.40;;;;;;4997428;28;20845;-69
2022/07/21 12:23:42;;;;;;;6.57;6.00;;;22.60;93.80;;;;;;4997267;28;20451;-69
2022/07/21 12:26:22;;;;;;;6.00;5.50;;;22.50;94.00;;;;;;4997035;28;20451;-68
2022/07/21 12:28:52;;;;;;;4.03;3.77;;;22.30;94.50;;;;;;4996535;28;20551;-68
2022/07/21 12:31:23;;;;;;;3.20;2.80;;;22.10;94.80;;;;;;4997266;28;20519;-68
2022/07/21 12:33:50;;;;;;;3.40;2.93;;;22.00;95.40;;;;;;4996865;28;20436;-68
2022/07/21 12:36:21;;;;;;;4.30;4.00;;;21.80;95.40;;;;;;4996768;28;20463;-68
2022/07/21 12:38:50;;;;;;;4.90;4.50;;;21.60;95.50;;;;;;4996521;28;20487;-68
2022/07/21 12:41:19;;;;;;;4.97;4.53;;;21.40;95.60;;;;;;4996775;28;20495;-68
2022/07/21 12:43:54;;;;;;;5.23;4.83;;;21.20;95.90;;;;;;4996334;28;20460;-68
2022/07/21 12:46:29;;;;;;;6.13;5.63;;;21.00;96.30;;;;;;4995889;28;20432;-68
2022/07/21 12:49:04;;;;;;;6.17;5.27;;;21.00;96.70;;;;;;4996535;28;20476;-68
2022/07/21 12:51:31;;;;;;;5.80;5.33;;;20.90;97.00;;;;;;4996683;28;20494;-68
2022/07/21 12:53:58;;;;;;;7.60;7.00;;;21.00;97.40;;;;;;4996228;28;20452;-68